createdAt,value
2023-04-12T00:01:12.258Z,1.83
2023-04-12T00:06:14.456Z,2.35
2023-04-12T00:11:16.931Z,1.33
2023-04-12T00:16:19.086Z,1.40
2023-04-12T00:21:23.879Z,2.45
2023-04-12T00:26:26.200Z,1.52
2023-04-12T00:31:30.136Z,3.03
2023-04-12T00:36:32.268Z,1.10
2023-04-12T00:41:37.601Z,0.98
2023-04-12T00:46:40.557Z,1.40
2023-04-12T00:51:43.269Z,1.70
2023-04-12T00:56:47.333Z,1.83
2023-04-12T01:01:49.505Z,1.20
2023-04-12T01:07:39.709Z,1.10
2023-04-12T01:13:07.168Z,2.30
2023-04-12T01:18:16.175Z,1.45
2023-04-12T01:23:23.898Z,1.10
2023-04-12T01:28:33.916Z,1.40
2023-04-12T01:33:39.587Z,1.33
2023-04-12T01:38:42.626Z,1.27
2023-04-12T01:43:48.452Z,0.93
2023-04-12T01:48:53.287Z,1.15
2023-04-12T01:54:01.194Z,0.90
2023-04-12T01:59:04.644Z,1.00
2023-04-12T02:04:08.354Z,0.98
2023-04-12T02:09:10.718Z,1.30
2023-04-12T02:14:12.892Z,1.60
2023-04-12T02:19:15.168Z,0.93
2023-04-12T02:24:18.317Z,1.80
2023-04-12T02:29:20.461Z,1.52
2023-04-12T02:34:23.659Z,1.45
2023-04-12T02:39:34.502Z,1.65
2023-04-12T02:44:36.918Z,1.10
2023-04-12T02:49:47.043Z,1.33
2023-04-12T02:54:52.846Z,1.17
2023-04-12T02:59:56.050Z,2.47
2023-04-12T03:05:03.575Z,2.35
2023-04-12T03:10:17.340Z,1.60
2023-04-12T03:15:28.220Z,1.95
2023-04-12T03:20:40.738Z,2.15
2023-04-12T03:25:44.926Z,1.30
2023-04-12T03:31:08.448Z,2.45
2023-04-12T03:36:21.868Z,1.42
2023-04-12T03:41:30.144Z,3.85
2023-04-12T03:46:35.294Z,2.00
2023-04-12T03:51:43.147Z,2.08
2023-04-12T03:56:46.382Z,1.20
2023-04-12T04:01:57.733Z,4.30
2023-04-12T04:07:02.654Z,1.83
2023-04-12T04:12:12.079Z,2.25
2023-04-12T04:17:19.653Z,1.50
2023-04-12T04:22:23.383Z,1.90
2023-04-12T04:27:30.650Z,1.75
2023-04-12T04:32:35.257Z,1.70
2023-04-12T04:37:37.769Z,1.40
2023-04-12T04:42:43.019Z,1.70
2023-04-12T04:47:45.943Z,1.63
2023-04-12T04:52:51.583Z,0.95
2023-04-12T04:57:54.256Z,1.55
2023-04-12T05:02:56.858Z,4.38
2023-04-12T05:08:02.750Z,1.73
2023-04-12T05:13:07.293Z,2.63
2023-04-12T05:18:10.751Z,1.92
2023-04-12T05:23:12.864Z,1.65
2023-04-12T05:28:17.385Z,1.05
2023-04-12T05:33:19.557Z,0.80
2023-04-12T05:38:24.101Z,3.30
2023-04-12T05:43:30.692Z,1.90
2023-04-12T05:48:33.213Z,1.30
2023-04-12T05:53:37.130Z,1.13
2023-04-12T05:58:41.328Z,0.57
2023-04-12T06:03:44.815Z,1.17
2023-04-12T06:08:48.580Z,0.63
2023-04-12T06:13:50.982Z,1.42
2023-04-12T06:18:53.291Z,1.17
2023-04-12T06:23:55.501Z,1.33
2023-04-12T06:28:57.806Z,1.15
2023-04-12T06:34:03.263Z,1.33
2023-04-12T06:39:06.853Z,1.20
2023-04-12T06:44:09.905Z,2.92
2023-04-12T06:49:12.419Z,1.95
2023-04-12T06:54:15.755Z,1.15
2023-04-12T06:59:17.895Z,1.25
2023-04-12T07:04:20.150Z,2.50
2023-04-12T07:09:22.379Z,3.72
2023-04-12T07:14:27.097Z,2.30
2023-04-12T07:19:31.230Z,2.28
2023-04-12T07:24:33.701Z,1.67
2023-04-12T07:29:35.981Z,3.10
2023-04-12T07:34:39.511Z,1.88
2023-04-12T07:39:41.859Z,1.80
2023-04-12T07:44:47.002Z,1.88
2023-04-12T07:49:49.596Z,2.03
2023-04-12T07:54:51.855Z,1.95
2023-04-12T07:59:53.968Z,2.45
2023-04-12T08:04:56.279Z,2.42
2023-04-12T08:09:58.377Z,2.83
2023-04-12T08:15:00.628Z,1.95
2023-04-12T08:20:03.915Z,2.28
2023-04-12T08:25:06.666Z,2.83
2023-04-12T08:30:09.402Z,1.55
2023-04-12T08:35:12.141Z,1.77
2023-04-12T08:40:14.587Z,2.92
2023-04-12T08:45:16.745Z,1.00
2023-04-12T08:50:32.854Z,2.40
2023-04-12T08:55:36.591Z,0.88
2023-04-12T09:00:39.065Z,0.75
2023-04-12T09:05:41.718Z,1.73
2023-04-12T09:10:43.880Z,1.23
2023-04-12T09:15:50.372Z,1.55
2023-04-12T09:21:21.975Z,1.17
2023-04-12T09:26:31.617Z,0.85
2023-04-12T09:31:36.099Z,1.10
2023-04-12T09:36:43.283Z,0.82
2023-04-12T09:41:45.658Z,1.67
2023-04-12T09:46:54.524Z,1.70
2023-04-12T09:51:59.383Z,1.35
2023-04-12T09:57:02.904Z,1.77
2023-04-12T10:02:16.882Z,1.02
2023-04-12T10:07:20.358Z,2.10
2023-04-12T10:12:27.544Z,1.38
2023-04-12T10:17:30.407Z,1.73
2023-04-12T10:22:32.812Z,1.42
2023-04-12T10:27:35.040Z,1.02
2023-04-12T10:32:37.772Z,1.25
2023-04-12T10:38:03.204Z,0.93
2023-04-12T10:43:29.090Z,1.55
2023-04-12T10:48:36.162Z,2.58
2023-04-12T10:53:38.433Z,1.67
2023-04-12T10:58:50.710Z,0.90
2023-04-12T11:04:09.114Z,0.93
2023-04-12T11:09:29.387Z,0.57
2023-04-12T11:14:35.878Z,1.08
2023-04-12T11:19:42.845Z,1.02
2023-04-12T11:24:50.534Z,1.13
2023-04-12T11:29:58.033Z,1.90
2023-04-12T11:35:00.303Z,2.95
2023-04-12T11:40:09.558Z,1.88
2023-04-12T11:45:18.820Z,1.02
2023-04-12T11:50:32.684Z,0.93
2023-04-12T11:55:35.717Z,1.20
2023-04-12T12:00:40.878Z,1.45
2023-04-12T12:05:46.639Z,1.75
2023-04-12T12:11:07.405Z,0.90
2023-04-12T12:16:13.359Z,1.27
2023-04-12T12:21:16.905Z,1.00
2023-04-12T12:26:21.839Z,1.00
2023-04-12T12:31:30.746Z,1.63
2023-04-12T12:36:38.901Z,1.95
2023-04-12T12:41:41.744Z,1.50
2023-04-12T12:46:55.227Z,1.40
2023-04-12T12:51:59.361Z,2.25
2023-04-12T12:57:04.406Z,1.20
2023-04-12T13:02:07.693Z,1.80
2023-04-12T13:07:10.238Z,1.98
2023-04-12T13:12:15.258Z,1.20
2023-04-12T13:17:17.515Z,2.42
2023-04-12T13:22:19.852Z,2.63
2023-04-12T13:27:22.541Z,2.05
2023-04-12T13:32:24.725Z,4.43
2023-04-12T13:37:26.991Z,3.70
2023-04-12T13:42:29.244Z,2.47
2023-04-12T13:47:48.102Z,0.75
2023-04-12T13:52:52.002Z,1.23
2023-04-12T13:57:57.116Z,1.17
2023-04-12T14:03:54.564Z,0.75
2023-04-12T14:14:39.105Z,1.00
2023-04-12T14:19:42.477Z,0.75
2023-04-12T14:24:48.893Z,3.42
2023-04-12T14:29:54.928Z,2.67
2023-04-12T14:35:08.054Z,2.45
2023-04-12T14:40:14.075Z,1.60
2023-04-12T14:45:28.822Z,2.22
2023-04-12T14:50:56.501Z,3.42
2023-04-12T15:02:09.361Z,3.72
2023-04-12T15:07:37.021Z,4.00
2023-04-12T15:12:39.495Z,3.50
2023-04-12T15:17:52.687Z,5.63
2023-04-12T15:22:57.467Z,3.35
2023-04-12T15:27:59.658Z,1.45
2023-04-12T15:33:02.245Z,1.95
2023-04-12T15:38:04.654Z,4.30
2023-04-12T15:43:07.212Z,3.45
2023-04-12T15:48:11.024Z,4.47
2023-04-12T15:53:15.259Z,3.20
2023-04-12T15:58:19.491Z,4.18
2023-04-12T16:03:23.501Z,3.25
2023-04-12T16:08:27.469Z,4.30
2023-04-12T16:13:30.393Z,4.35
2023-04-12T16:18:32.865Z,5.60
2023-04-12T16:23:37.360Z,4.97
2023-04-12T16:28:46.344Z,6.35
2023-04-12T16:33:52.125Z,4.03
2023-04-12T16:38:59.326Z,5.82
2023-04-12T16:44:03.442Z,4.22
2023-04-12T16:49:05.769Z,5.03
2023-04-12T16:54:09.296Z,4.60
2023-04-12T16:59:11.724Z,5.32
2023-04-12T17:04:14.518Z,5.95
2023-04-12T17:09:17.011Z,4.18
2023-04-12T17:14:19.775Z,4.57
2023-04-12T17:19:21.984Z,3.50
2023-04-12T17:24:25.453Z,5.32
2023-04-12T17:29:28.035Z,4.28
2023-04-12T17:34:30.254Z,4.85
2023-04-12T17:39:32.390Z,4.03
2023-04-12T17:44:34.559Z,4.43
2023-04-12T17:49:38.172Z,3.67
2023-04-12T17:54:41.211Z,4.05
2023-04-12T17:59:43.548Z,3.22
2023-04-12T18:04:46.299Z,6.15
2023-04-12T18:09:48.833Z,5.07
2023-04-12T18:14:50.986Z,4.13
2023-04-12T18:19:55.535Z,4.60
2023-04-12T18:24:57.771Z,5.32
2023-04-12T18:30:01.524Z,4.13
2023-04-12T18:35:04.710Z,4.15
2023-04-12T18:40:07.512Z,5.13
2023-04-12T18:45:10.480Z,4.22
2023-04-12T18:50:14.107Z,4.45
2023-04-12T18:55:16.595Z,5.65
2023-04-12T19:00:19.757Z,5.05
2023-04-12T19:05:22.087Z,4.03
2023-04-12T19:10:28.199Z,5.95
2023-04-12T19:15:30.603Z,4.43
2023-04-12T19:20:33.876Z,4.88
2023-04-12T19:25:36.421Z,6.22
2023-04-12T19:30:38.839Z,4.60
2023-04-12T19:35:42.062Z,5.35
2023-04-12T19:40:44.288Z,4.55
2023-04-12T19:45:46.875Z,5.63
2023-04-12T19:50:49.207Z,8.00
2023-04-12T19:55:52.472Z,6.45
2023-04-12T20:00:56.223Z,5.47
2023-04-12T20:05:59.109Z,5.07
2023-04-12T20:11:02.689Z,5.30
2023-04-12T20:16:05.489Z,5.20
2023-04-12T20:21:10.111Z,6.35
2023-04-12T20:26:12.315Z,6.05
2023-04-12T20:31:14.519Z,4.60
2023-04-12T20:36:17.794Z,3.85
2023-04-12T20:41:20.194Z,5.70
2023-04-12T20:46:25.971Z,6.78
2023-04-12T20:51:29.526Z,3.80
2023-04-12T20:56:33.002Z,4.00
2023-04-12T21:01:38.998Z,4.30
2023-04-12T21:06:42.347Z,5.40
2023-04-12T21:11:44.692Z,3.80
2023-04-12T21:16:48.806Z,3.05
2023-04-12T21:21:51.193Z,3.53
2023-04-12T21:26:57.118Z,3.60
2023-04-12T21:32:05.715Z,3.95
2023-04-12T21:37:08.020Z,3.40
2023-04-12T21:42:10.193Z,4.22
2023-04-12T21:47:12.882Z,3.67
2023-04-12T21:52:15.015Z,3.38
2023-04-12T21:57:19.267Z,2.63
2023-04-12T22:02:21.437Z,3.20
2023-04-12T22:07:23.588Z,2.50
2023-04-12T22:12:25.967Z,3.00
2023-04-12T22:17:28.458Z,2.63
2023-04-12T22:22:31.933Z,4.78
2023-04-12T22:27:34.085Z,3.22
2023-04-12T22:32:36.253Z,4.78
2023-04-12T22:37:39.166Z,3.83
2023-04-12T22:42:46.736Z,3.15
2023-04-12T22:47:49.261Z,2.47
2023-04-12T22:52:51.616Z,3.08
2023-04-12T22:57:54.499Z,2.35
2023-04-12T23:02:56.811Z,2.83
2023-04-12T23:08:00.696Z,3.30
2023-04-12T23:13:03.321Z,1.73
2023-04-12T23:18:05.655Z,3.00
2023-04-12T23:23:08.097Z,2.97
2023-04-12T23:28:13.024Z,3.85
2023-04-12T23:33:18.596Z,2.92
2023-04-12T23:38:24.727Z,2.47
2023-04-12T23:43:26.994Z,2.78
2023-04-12T23:48:29.729Z,3.35
2023-04-12T23:53:32.240Z,1.73
2023-04-12T23:58:35.075Z,2.40
